Terminal Aerodrome Forecast
Issued by NWS Albany, NY

Home | Current Version | Previous Version | Text Only | Print | Product List | Glossary On
Versions: 1 2 3 4 5 6 7 8 9 10 11 12 13 14 15 16 17 18
000
FTUS41 KALY 240535
TAFPOU
TAF
KPOU 240535Z 2406/2506 00000KT P6SM SKC
     FM241100 VRB03KT P6SM SKC
     FM241400 23007KT P6SM SKC
     FM241700 23010KT P6SM FEW250
     FM250000 20005KT P6SM SCT250
     FM250300 VRB03KT P6SM SCT120 BKN250=

USA.gov is the U.S. government's official web portal to all federal, state and local government web resources and services.